createdAt,value
2022-12-27T00:00:15.676Z,12.50
2022-12-27T00:02:42.723Z,12.50
2022-12-27T00:05:10.239Z,12.40
2022-12-27T00:07:37.521Z,12.40
2022-12-27T00:10:06.522Z,12.40
2022-12-27T00:12:34.039Z,12.40
2022-12-27T00:15:01.179Z,12.30
2022-12-27T00:17:28.172Z,12.30
2022-12-27T00:19:55.158Z,12.30
2022-12-27T00:22:22.340Z,12.30
2022-12-27T00:24:49.334Z,12.30
2022-12-27T00:27:16.675Z,12.20
2022-12-27T00:29:43.845Z,12.30
2022-12-27T00:32:10.824Z,12.20
2022-12-27T00:34:37.749Z,12.20
2022-12-27T00:37:04.700Z,12.20
2022-12-27T00:39:31.713Z,12.20
2022-12-27T00:41:58.669Z,12.20
2022-12-27T00:44:25.702Z,12.20
2022-12-27T00:46:52.681Z,12.20
2022-12-27T00:49:19.652Z,12.20
2022-12-27T00:51:46.664Z,12.20
2022-12-27T00:54:13.614Z,12.20
2022-12-27T00:56:40.667Z,12.20
2022-12-27T00:59:08.386Z,12.10
2022-12-27T01:01:36.608Z,12.10
2022-12-27T01:04:04.731Z,12.10
2022-12-27T01:06:33.927Z,12.10
2022-12-27T01:09:02.101Z,12.10
2022-12-27T01:11:29.855Z,12.10
2022-12-27T01:14:01.873Z,12.10
2022-12-27T01:16:30.630Z,12.10
2022-12-27T01:18:58.958Z,12.10
2022-12-27T01:21:27.256Z,12.00
2022-12-27T01:23:55.284Z,12.00
2022-12-27T01:26:24.165Z,12.00
2022-12-27T01:28:52.535Z,12.00
2022-12-27T01:31:26.146Z,11.90
2022-12-27T01:33:59.270Z,11.90
2022-12-27T01:36:28.340Z,11.90
2022-12-27T01:38:58.431Z,11.90
2022-12-27T01:41:45.892Z,11.80
2022-12-27T01:44:37.932Z,11.80
2022-12-27T01:47:26.341Z,11.80
2022-12-27T01:49:53.271Z,11.80
2022-12-27T01:52:22.536Z,11.80
2022-12-27T01:54:49.760Z,11.70
2022-12-27T01:57:16.809Z,11.70
2022-12-27T01:59:43.981Z,11.70
2022-12-27T02:02:11.005Z,11.60
2022-12-27T02:04:38.782Z,11.60
2022-12-27T02:07:05.978Z,11.60
2022-12-27T02:09:49.624Z,11.60
2022-12-27T02:12:18.105Z,11.60
2022-12-27T02:14:49.149Z,11.60
2022-12-27T02:17:27.927Z,11.60
2022-12-27T02:20:00.633Z,11.60
2022-12-27T02:23:22.828Z,11.50
2022-12-27T02:26:05.792Z,11.50
2022-12-27T02:28:48.896Z,11.50
2022-12-27T02:31:24.844Z,11.50
2022-12-27T02:33:53.195Z,11.50
2022-12-27T02:36:31.558Z,11.50
2022-12-27T02:39:01.288Z,11.40
2022-12-27T02:41:50.090Z,11.40
2022-12-27T02:44:39.573Z,11.40
2022-12-27T02:47:38.681Z,11.40
2022-12-27T02:50:25.605Z,11.40
2022-12-27T02:53:18.543Z,11.40
2022-12-27T02:56:37.926Z,11.40
2022-12-27T02:59:24.930Z,11.30
2022-12-27T03:02:27.498Z,11.20
2022-12-27T03:05:21.182Z,11.20
2022-12-27T03:08:12.810Z,11.10
2022-12-27T03:11:30.862Z,11.20
2022-12-27T03:14:28.234Z,11.10
2022-12-27T03:17:02.092Z,11.10
2022-12-27T03:19:58.008Z,11.10
2022-12-27T03:22:47.055Z,11.10
2022-12-27T03:25:31.054Z,11.10
2022-12-27T03:28:19.411Z,11.10
2022-12-27T03:31:08.422Z,11.00
2022-12-27T03:33:38.765Z,11.10
2022-12-27T03:36:34.806Z,11.10
2022-12-27T03:39:30.427Z,11.00
2022-12-27T03:42:35.868Z,11.00
2022-12-27T03:45:02.896Z,11.00
2022-12-27T03:48:00.654Z,11.00
2022-12-27T03:50:42.102Z,11.00
2022-12-27T03:53:14.966Z,11.00
2022-12-27T03:55:42.926Z,11.00
2022-12-27T03:58:10.182Z,10.90
2022-12-27T04:00:37.482Z,10.90
2022-12-27T04:03:04.979Z,10.90
2022-12-27T04:05:32.017Z,10.90
2022-12-27T04:08:17.835Z,10.80
2022-12-27T04:11:03.859Z,10.80
2022-12-27T04:13:49.723Z,10.80
2022-12-27T04:16:35.807Z,10.80
2022-12-27T04:19:21.315Z,10.80
2022-12-27T04:22:06.717Z,10.80
2022-12-27T04:24:53.180Z,10.80
2022-12-27T04:27:38.630Z,10.80
2022-12-27T04:30:24.688Z,10.80
2022-12-27T04:33:10.591Z,10.80
2022-12-27T04:35:37.603Z,10.80
2022-12-27T04:38:04.467Z,10.80
2022-12-27T04:40:49.909Z,10.70
2022-12-27T04:43:35.348Z,10.70
2022-12-27T04:46:20.899Z,10.70
2022-12-27T04:49:06.679Z,10.70
2022-12-27T04:51:51.988Z,10.70
2022-12-27T04:54:39.351Z,10.70
2022-12-27T04:57:06.315Z,10.70
2022-12-27T04:59:51.702Z,10.70
2022-12-27T05:02:19.787Z,10.70
2022-12-27T05:04:48.322Z,10.60
2022-12-27T05:07:34.719Z,10.60
2022-12-27T05:10:23.243Z,10.60
2022-12-27T05:13:08.577Z,10.60
2022-12-27T05:15:35.486Z,10.50
2022-12-27T05:18:02.495Z,10.50
2022-12-27T05:20:29.468Z,10.50
2022-12-27T05:23:14.979Z,10.50
2022-12-27T05:25:43.580Z,10.50
2022-12-27T05:28:11.983Z,10.50
2022-12-27T05:30:43.655Z,10.50
2022-12-27T05:33:10.630Z,10.50
2022-12-27T05:35:37.699Z,10.50
2022-12-27T05:38:05.827Z,10.50
2022-12-27T05:40:33.737Z,10.50
2022-12-27T05:43:02.829Z,10.50
2022-12-27T05:45:30.535Z,10.50
2022-12-27T05:47:59.119Z,10.40
2022-12-27T05:50:26.455Z,10.40
2022-12-27T05:52:53.319Z,10.40
2022-12-27T05:55:20.269Z,10.50
2022-12-27T05:57:47.176Z,10.40
2022-12-27T06:00:14.698Z,10.40
2022-12-27T06:02:42.479Z,10.40
2022-12-27T06:05:10.832Z,10.40
2022-12-27T06:07:38.648Z,10.40
2022-12-27T06:10:07.752Z,10.40
2022-12-27T06:12:35.223Z,10.40
2022-12-27T06:15:02.850Z,10.40
2022-12-27T06:17:30.335Z,10.30
2022-12-27T06:19:57.564Z,10.40
2022-12-27T06:22:24.967Z,10.30
2022-12-27T06:24:52.146Z,10.30
2022-12-27T06:27:19.316Z,10.30
2022-12-27T06:29:46.561Z,10.30
2022-12-27T06:32:13.553Z,10.20
2022-12-27T06:34:40.470Z,10.20
2022-12-27T06:37:07.450Z,10.20
2022-12-27T06:39:34.443Z,10.20
2022-12-27T06:42:01.453Z,10.20
2022-12-27T06:44:28.452Z,10.10
2022-12-27T06:46:55.439Z,10.10
2022-12-27T06:49:22.412Z,10.10
2022-12-27T06:51:55.721Z,10.10
2022-12-27T06:54:26.343Z,10.10
2022-12-27T06:56:53.524Z,10.10
2022-12-27T06:59:20.491Z,10.10
2022-12-27T07:01:47.501Z,10.10
2022-12-27T07:04:14.583Z,10.10
2022-12-27T07:06:41.571Z,10.10
2022-12-27T07:09:08.812Z,10.10
2022-12-27T07:11:37.179Z,10.10
2022-12-27T07:14:04.953Z,10.10
2022-12-27T07:16:32.005Z,10.10
2022-12-27T07:19:00.125Z,10.10
2022-12-27T07:21:29.295Z,10.10
2022-12-27T07:23:56.935Z,10.20
2022-12-27T07:26:28.563Z,10.10
2022-12-27T07:28:58.015Z,10.10
2022-12-27T07:31:27.642Z,10.10
2022-12-27T07:33:54.522Z,10.20
2022-12-27T07:36:24.535Z,10.20
2022-12-27T07:38:51.939Z,10.20
2022-12-27T07:41:19.180Z,10.20
2022-12-27T07:43:46.407Z,10.20
2022-12-27T07:46:19.028Z,10.20
2022-12-27T07:48:47.312Z,10.20
2022-12-27T07:51:16.284Z,10.30
2022-12-27T07:53:43.970Z,10.30
2022-12-27T07:56:21.751Z,10.30
2022-12-27T07:58:54.327Z,10.30
2022-12-27T08:01:22.857Z,10.40
2022-12-27T08:03:50.235Z,10.40
2022-12-27T08:06:29.957Z,10.40
2022-12-27T08:08:59.615Z,10.40
2022-12-27T08:11:27.472Z,10.50
2022-12-27T08:13:54.401Z,10.50
2022-12-27T08:16:24.493Z,10.50
2022-12-27T08:18:53.053Z,10.50
2022-12-27T08:21:20.287Z,10.60
2022-12-27T08:23:47.223Z,10.60
2022-12-27T08:26:14.192Z,10.60
2022-12-27T08:28:41.291Z,10.60
2022-12-27T08:31:10.893Z,10.60
2022-12-27T08:33:38.455Z,10.70
2022-12-27T08:36:22.326Z,10.70
2022-12-27T08:38:55.101Z,10.70
2022-12-27T08:41:23.257Z,10.70
2022-12-27T08:43:50.505Z,10.70
2022-12-27T08:46:19.495Z,10.70
2022-12-27T08:48:50.080Z,10.80
2022-12-27T08:51:28.345Z,10.80
2022-12-27T08:54:00.431Z,10.80
2022-12-27T08:56:27.513Z,10.80
2022-12-27T08:58:54.644Z,10.90
2022-12-27T09:01:22.804Z,10.90
2022-12-27T09:03:49.907Z,10.90
2022-12-27T09:06:19.693Z,10.90
2022-12-27T09:08:48.698Z,10.90
2022-12-27T09:11:25.008Z,10.90
2022-12-27T09:13:52.424Z,11.00
2022-12-27T09:16:22.862Z,11.00
2022-12-27T09:18:52.874Z,11.00
2022-12-27T09:21:21.891Z,11.00
2022-12-27T09:23:49.790Z,11.10
2022-12-27T09:26:24.187Z,11.10
2022-12-27T09:28:51.868Z,11.10
2022-12-27T09:31:20.640Z,11.10
2022-12-27T09:33:47.991Z,11.10
2022-12-27T09:36:20.069Z,11.20
2022-12-27T09:38:48.297Z,11.30
2022-12-27T09:42:11.742Z,11.30
2022-12-27T09:44:18.980Z,11.30
2022-12-27T09:47:19.037Z,11.30
2022-12-27T09:49:50.871Z,11.30
2022-12-27T09:52:34.272Z,11.40
2022-12-27T09:55:05.365Z,11.40
2022-12-27T09:57:44.870Z,11.40
2022-12-27T10:00:34.059Z,11.40
2022-12-27T10:03:05.501Z,11.50
2022-12-27T10:05:35.306Z,11.50
2022-12-27T10:08:05.103Z,11.50
2022-12-27T10:10:58.060Z,11.50
2022-12-27T10:13:41.386Z,11.50
2022-12-27T10:16:26.488Z,11.50
2022-12-27T10:19:22.570Z,11.60
2022-12-27T10:22:14.570Z,11.60
2022-12-27T10:24:50.274Z,11.70
2022-12-27T10:27:25.421Z,11.70
2022-12-27T10:29:58.300Z,11.70
2022-12-27T10:32:25.851Z,11.80
2022-12-27T10:35:01.300Z,11.80
2022-12-27T10:37:28.996Z,11.80
2022-12-27T10:40:05.547Z,11.80
2022-12-27T10:42:38.792Z,11.80
2022-12-27T10:45:33.456Z,11.90
2022-12-27T10:48:20.784Z,11.90
2022-12-27T10:50:53.074Z,12.00
2022-12-27T10:53:38.752Z,11.90
2022-12-27T10:56:28.768Z,12.00
2022-12-27T10:59:11.101Z,12.00
2022-12-27T11:01:38.298Z,12.00
2022-12-27T11:04:22.238Z,12.10
2022-12-27T11:07:12.867Z,12.10
2022-12-27T11:09:50.300Z,12.10
2022-12-27T11:12:29.213Z,12.20
2022-12-27T11:14:59.599Z,12.20
2022-12-27T11:17:29.649Z,12.20
2022-12-27T11:20:00.415Z,12.20
2022-12-27T11:22:27.666Z,12.30
2022-12-27T11:24:57.570Z,12.30
2022-12-27T11:27:27.691Z,12.30
2022-12-27T11:29:57.707Z,12.30
2022-12-27T11:32:25.199Z,12.40
2022-12-27T11:34:56.771Z,12.40
2022-12-27T11:37:27.139Z,12.40
2022-12-27T11:40:22.331Z,12.40
2022-12-27T11:43:01.351Z,12.50
2022-12-27T11:45:44.367Z,12.50
2022-12-27T11:48:25.219Z,12.50
2022-12-27T11:51:13.215Z,12.50
2022-12-27T11:53:57.979Z,12.60
2022-12-27T11:56:35.496Z,12.60
2022-12-27T11:59:29.220Z,12.60
2022-12-27T12:02:26.386Z,12.60
2022-12-27T12:05:30.660Z,12.70
2022-12-27T12:08:15.824Z,12.70
2022-12-27T12:11:24.280Z,12.70
2022-12-27T12:13:57.527Z,12.70
2022-12-27T12:17:01.873Z,12.80
2022-12-27T12:19:59.722Z,12.80
2022-12-27T12:22:54.949Z,12.80
2022-12-27T12:25:52.891Z,12.90
2022-12-27T12:28:58.628Z,12.90
2022-12-27T12:31:51.052Z,12.90
2022-12-27T12:34:48.487Z,12.90
2022-12-27T12:37:30.657Z,13.00
2022-12-27T12:40:26.135Z,13.00
2022-12-27T12:43:21.699Z,13.00
2022-12-27T12:46:16.142Z,13.00
2022-12-27T12:48:59.452Z,13.10
2022-12-27T12:51:44.462Z,13.20
2022-12-27T12:54:30.049Z,13.20
2022-12-27T12:57:09.083Z,13.20
2022-12-27T13:00:23.288Z,13.20
2022-12-27T13:03:38.198Z,13.30
2022-12-27T13:06:39.304Z,13.30
2022-12-27T13:09:29.873Z,13.40
2022-12-27T13:12:08.511Z,13.50
2022-12-27T13:15:05.892Z,13.60
2022-12-27T13:17:47.819Z,13.70
2022-12-27T13:20:26.843Z,13.90
2022-12-27T13:23:46.572Z,14.10
2022-12-27T13:26:55.235Z,14.50
2022-12-27T13:29:40.875Z,15.10
2022-12-27T13:32:13.758Z,15.60
2022-12-27T13:35:16.238Z,15.90
2022-12-27T13:38:18.589Z,16.10
2022-12-27T13:41:29.928Z,16.40
2022-12-27T13:44:31.570Z,16.60
2022-12-27T13:47:35.923Z,16.60
2022-12-27T13:50:23.509Z,16.50
2022-12-27T13:53:00.126Z,16.40
2022-12-27T13:55:42.677Z,16.30
2022-12-27T13:58:59.574Z,16.20
2022-12-27T14:01:29.622Z,16.20
2022-12-27T14:04:22.778Z,16.20
2022-12-27T14:07:08.332Z,16.20
2022-12-27T14:10:20.476Z,16.20
2022-12-27T14:13:00.034Z,16.30
2022-12-27T14:15:29.182Z,16.40
2022-12-27T14:18:30.064Z,16.60
2022-12-27T14:21:22.314Z,16.80
2022-12-27T14:24:25.910Z,17.10
2022-12-27T14:27:01.959Z,17.30
2022-12-27T14:29:39.921Z,17.40
2022-12-27T14:32:38.003Z,17.50
2022-12-27T14:35:30.089Z,17.60
2022-12-27T14:38:06.440Z,17.60
2022-12-27T14:40:48.681Z,17.70
2022-12-27T14:44:00.155Z,17.70
2022-12-27T14:46:51.100Z,17.60
2022-12-27T14:49:33.575Z,17.60
2022-12-27T14:52:04.491Z,17.60
2022-12-27T14:55:04.523Z,17.60
2022-12-27T14:57:36.114Z,17.60
2022-12-27T15:00:24.335Z,17.50
2022-12-27T15:03:04.109Z,17.30
2022-12-27T15:05:37.402Z,17.00
2022-12-27T15:08:30.536Z,16.70
2022-12-27T15:10:57.550Z,16.30
2022-12-27T15:13:55.428Z,16.00
2022-12-27T15:16:30.999Z,15.60
2022-12-27T15:19:08.410Z,15.30
2022-12-27T15:21:50.595Z,15.10
2022-12-27T15:24:55.062Z,14.90
2022-12-27T15:27:27.465Z,14.60
2022-12-27T15:30:16.314Z,14.40
2022-12-27T15:32:52.670Z,14.30
2022-12-27T15:35:41.099Z,14.10
2022-12-27T15:38:12.420Z,13.90
2022-12-27T15:40:59.378Z,13.80
2022-12-27T15:43:26.407Z,13.70
2022-12-27T15:46:08.393Z,13.50
2022-12-27T15:49:12.561Z,13.40
2022-12-27T15:51:53.764Z,13.30
2022-12-27T15:54:47.564Z,13.20
2022-12-27T15:57:47.954Z,13.20
2022-12-27T16:00:34.475Z,13.10
2022-12-27T16:03:05.584Z,13.00
2022-12-27T16:05:47.829Z,13.00
2022-12-27T16:08:28.808Z,12.90
2022-12-27T16:10:56.821Z,12.90
2022-12-27T16:13:37.606Z,12.80
2022-12-27T16:16:33.384Z,12.80
2022-12-27T16:19:20.659Z,12.80
2022-12-27T16:21:47.902Z,12.70
2022-12-27T16:24:22.487Z,12.70
2022-12-27T16:26:57.537Z,12.60
2022-12-27T16:29:29.496Z,12.60
2022-12-27T16:32:21.676Z,12.60
2022-12-27T16:34:52.167Z,12.60
2022-12-27T16:37:44.491Z,12.60
2022-12-27T16:40:30.821Z,12.50
2022-12-27T16:43:20.362Z,12.50
2022-12-27T16:46:06.468Z,12.50
2022-12-27T16:49:07.033Z,12.50
2022-12-27T16:52:15.023Z,12.40
2022-12-27T16:54:47.798Z,12.40
2022-12-27T16:57:26.980Z,12.40
2022-12-27T17:00:01.945Z,12.30
2022-12-27T17:02:47.608Z,12.30
2022-12-27T17:05:14.605Z,12.30
2022-12-27T17:07:57.945Z,12.30
2022-12-27T17:10:27.745Z,12.30
2022-12-27T17:13:03.892Z,12.30
2022-12-27T17:15:32.047Z,12.30
2022-12-27T17:18:09.184Z,12.30
2022-12-27T17:20:40.998Z,12.30
2022-12-27T17:23:08.001Z,12.30
2022-12-27T17:25:48.559Z,12.30
2022-12-27T17:28:28.677Z,12.30
2022-12-27T17:31:11.921Z,12.20
2022-12-27T17:34:23.415Z,12.20
2022-12-27T17:36:56.259Z,12.20
2022-12-27T17:39:40.650Z,12.20
2022-12-27T17:42:42.331Z,12.20
2022-12-27T17:45:31.384Z,12.10
2022-12-27T17:48:25.414Z,12.20
2022-12-27T17:50:56.219Z,12.20
2022-12-27T17:53:42.809Z,12.20
2022-12-27T17:56:39.524Z,12.20
2022-12-27T17:59:12.055Z,12.20
2022-12-27T18:01:46.779Z,12.20
2022-12-27T18:04:29.552Z,12.20
2022-12-27T18:07:05.135Z,12.10
2022-12-27T18:09:45.866Z,12.20
2022-12-27T18:12:20.219Z,12.20
2022-12-27T18:15:18.194Z,12.10
2022-12-27T18:17:50.705Z,12.10
2022-12-27T18:20:26.688Z,12.10
2022-12-27T18:23:02.441Z,12.10
2022-12-27T18:25:29.292Z,12.10
2022-12-27T18:27:59.363Z,12.10
2022-12-27T18:30:28.835Z,12.10
2022-12-27T18:32:57.805Z,12.10
2022-12-27T18:35:26.329Z,12.00
2022-12-27T18:37:54.634Z,12.00
2022-12-27T18:40:26.227Z,12.00
2022-12-27T18:42:54.505Z,12.00
2022-12-27T18:45:29.166Z,12.00
2022-12-27T18:48:00.213Z,11.90
2022-12-27T18:50:30.020Z,11.90
2022-12-27T18:53:36.950Z,11.90
2022-12-27T18:56:05.603Z,12.00
2022-12-27T18:58:33.804Z,12.00
2022-12-27T19:01:25.577Z,11.90
2022-12-27T19:04:15.146Z,11.90
2022-12-27T19:07:19.175Z,11.90
2022-12-27T19:09:50.568Z,11.90
2022-12-27T19:12:34.031Z,11.90
2022-12-27T19:15:01.976Z,11.80
2022-12-27T19:17:31.704Z,11.90
2022-12-27T19:20:02.797Z,11.80
2022-12-27T19:22:48.201Z,11.90
2022-12-27T19:25:20.820Z,11.80
2022-12-27T19:28:11.907Z,11.90
2022-12-27T19:30:45.434Z,11.90
2022-12-27T19:33:25.213Z,11.80
2022-12-27T19:35:52.987Z,11.80
2022-12-27T19:38:23.634Z,11.80
2022-12-27T19:40:59.534Z,11.80
2022-12-27T19:43:45.036Z,11.80
2022-12-27T19:46:13.776Z,11.70
2022-12-27T19:48:41.091Z,11.80
2022-12-27T19:51:15.167Z,11.70
2022-12-27T19:53:44.289Z,11.70
2022-12-27T19:56:11.970Z,11.70
2022-12-27T19:58:39.106Z,11.70
2022-12-27T20:01:06.781Z,11.70
2022-12-27T20:03:33.731Z,11.70
2022-12-27T20:06:13.921Z,11.60
2022-12-27T20:08:49.193Z,11.60
2022-12-27T20:11:18.855Z,11.60
2022-12-27T20:13:46.637Z,11.60
2022-12-27T20:16:17.979Z,11.60
2022-12-27T20:18:46.020Z,11.60
2022-12-27T20:21:15.533Z,11.60
2022-12-27T20:23:42.703Z,11.60
2022-12-27T20:26:10.717Z,11.60
2022-12-27T20:28:37.741Z,11.60
2022-12-27T20:31:08.990Z,11.60
2022-12-27T20:33:36.592Z,11.60
2022-12-27T20:36:03.899Z,11.60
2022-12-27T20:38:31.314Z,11.60
2022-12-27T20:41:09.283Z,11.60
2022-12-27T20:43:37.016Z,11.50
2022-12-27T20:46:08.920Z,11.50
2022-12-27T20:48:43.195Z,11.60
2022-12-27T20:51:14.247Z,11.50
2022-12-27T20:53:41.240Z,11.50
2022-12-27T20:56:09.109Z,11.50
2022-12-27T20:58:36.234Z,11.50
2022-12-27T21:01:15.599Z,11.50
2022-12-27T21:03:43.860Z,11.50
2022-12-27T21:06:22.263Z,11.50
2022-12-27T21:08:56.180Z,11.50
2022-12-27T21:11:27.245Z,11.40
2022-12-27T21:13:54.947Z,11.50
2022-12-27T21:16:27.282Z,11.50
2022-12-27T21:18:56.100Z,11.40
2022-12-27T21:21:28.479Z,11.40
2022-12-27T21:23:57.900Z,11.40
2022-12-27T21:26:27.545Z,11.50
2022-12-27T21:28:55.213Z,11.50
2022-12-27T21:31:22.849Z,11.40
2022-12-27T21:33:50.010Z,11.40
2022-12-27T21:36:28.889Z,11.40
2022-12-27T21:38:56.352Z,11.40
2022-12-27T21:41:25.964Z,11.50
2022-12-27T21:43:53.532Z,11.40
2022-12-27T21:46:23.646Z,11.50
2022-12-27T21:49:05.537Z,11.40
2022-12-27T21:51:34.843Z,11.40
2022-12-27T21:54:02.521Z,11.40
2022-12-27T21:56:30.073Z,11.40
2022-12-27T21:58:58.796Z,11.40
2022-12-27T22:01:49.677Z,11.40
2022-12-27T22:04:18.238Z,11.40
2022-12-27T22:06:47.489Z,11.40
2022-12-27T22:09:15.541Z,11.40
2022-12-27T22:11:42.726Z,11.40
2022-12-27T22:14:09.706Z,11.40
2022-12-27T22:16:38.746Z,11.40
2022-12-27T22:19:08.062Z,11.30
2022-12-27T22:21:36.286Z,11.30
2022-12-27T22:24:04.070Z,11.30
2022-12-27T22:26:39.208Z,11.20
2022-12-27T22:29:06.665Z,11.20
2022-12-27T22:31:38.139Z,11.10
2022-12-27T22:34:06.119Z,11.10
2022-12-27T22:36:33.990Z,11.10
2022-12-27T22:39:02.058Z,11.10
2022-12-27T22:41:32.170Z,11.10
2022-12-27T22:44:02.035Z,11.10
2022-12-27T22:46:51.127Z,11.00
2022-12-27T22:49:17.700Z,10.90
2022-12-27T22:51:44.975Z,10.90
2022-12-27T22:54:12.028Z,10.90
2022-12-27T22:56:41.544Z,10.90
2022-12-27T22:59:11.585Z,10.90
2022-12-27T23:01:39.547Z,10.90
2022-12-27T23:04:08.035Z,10.90
2022-12-27T23:06:36.671Z,10.90
2022-12-27T23:09:04.640Z,10.90
2022-12-27T23:11:35.576Z,10.90
2022-12-27T23:14:05.714Z,10.80
2022-12-27T23:16:38.405Z,10.80
2022-12-27T23:19:06.328Z,10.70
2022-12-27T23:21:33.317Z,10.70
2022-12-27T23:24:00.313Z,10.70
2022-12-27T23:26:27.799Z,10.70
2022-12-27T23:28:55.296Z,10.70
2022-12-27T23:31:23.629Z,10.70
2022-12-27T23:33:50.821Z,10.70
2022-12-27T23:36:18.230Z,10.70
2022-12-27T23:38:45.611Z,10.60
2022-12-27T23:41:23.740Z,10.70
2022-12-27T23:43:53.901Z,10.60
2022-12-27T23:46:25.013Z,10.60
2022-12-27T23:48:52.337Z,10.50
2022-12-27T23:51:20.520Z,10.50
2022-12-27T23:53:47.705Z,10.50
2022-12-27T23:56:20.619Z,10.40
2022-12-27T23:58:48.783Z,10.30
